createdAt,value
2022-09-17T00:01:25.220Z,91.70
2022-09-17T00:03:59.171Z,91.60
2022-09-17T00:06:26.849Z,91.70
2022-09-17T00:08:54.638Z,91.80
2022-09-17T00:11:25.721Z,91.80
2022-09-17T00:13:54.521Z,91.90
2022-09-17T00:16:50.567Z,92.00
2022-09-17T00:19:22.790Z,92.00
2022-09-17T00:21:51.133Z,92.10
2022-09-17T00:24:19.623Z,92.10
2022-09-17T00:26:47.965Z,92.20
2022-09-17T00:29:16.023Z,92.30
2022-09-17T00:31:43.584Z,92.60
2022-09-17T00:34:12.182Z,92.40
2022-09-17T00:36:39.896Z,92.40
2022-09-17T00:39:09.965Z,92.60
2022-09-17T00:41:38.722Z,92.40
2022-09-17T00:44:43.264Z,92.50
2022-09-17T00:47:36.428Z,92.60
2022-09-17T00:50:13.007Z,92.90
2022-09-17T00:52:53.056Z,92.80
2022-09-17T00:55:33.332Z,92.80
2022-09-17T00:58:04.003Z,92.80
2022-09-17T01:00:32.030Z,92.80
2022-09-17T01:03:00.307Z,92.80
2022-09-17T01:05:36.250Z,92.90
2022-09-17T01:08:34.620Z,93.00
2022-09-17T01:11:29.218Z,92.90
2022-09-17T01:14:30.978Z,92.90
2022-09-17T01:17:25.959Z,92.90
2022-09-17T01:20:15.096Z,92.90
2022-09-17T01:23:19.698Z,93.00
2022-09-17T01:26:18.950Z,93.10
2022-09-17T01:29:15.977Z,93.20
2022-09-17T01:32:11.304Z,93.40
2022-09-17T01:35:08.539Z,93.40
2022-09-17T01:38:00.855Z,93.40
2022-09-17T01:40:34.140Z,93.40
2022-09-17T01:43:13.898Z,93.40
2022-09-17T01:46:02.876Z,93.50
2022-09-17T01:48:34.952Z,93.60
2022-09-17T01:51:16.223Z,93.90
2022-09-17T01:53:49.456Z,93.90
2022-09-17T01:56:24.261Z,93.90
2022-09-17T01:59:02.772Z,94.00
2022-09-17T02:01:32.746Z,94.10
2022-09-17T02:04:23.603Z,94.20
2022-09-17T02:06:58.316Z,94.20
2022-09-17T02:09:49.313Z,94.20
2022-09-17T02:12:24.939Z,94.40
2022-09-17T02:14:55.998Z,94.50
2022-09-17T02:17:39.031Z,94.50
2022-09-17T02:20:07.416Z,94.70
2022-09-17T02:22:42.496Z,94.70
2022-09-17T02:25:42.724Z,94.70
2022-09-17T02:28:24.211Z,94.90
2022-09-17T02:30:51.946Z,95.00
2022-09-17T02:33:20.364Z,95.20
2022-09-17T02:35:48.020Z,95.30
2022-09-17T02:38:26.811Z,95.30
2022-09-17T02:41:21.841Z,95.50
2022-09-17T02:44:11.132Z,95.60
2022-09-17T02:46:41.757Z,95.60
2022-09-17T02:49:23.947Z,95.80
2022-09-17T02:51:55.429Z,95.80
2022-09-17T02:54:42.668Z,95.80
2022-09-17T02:57:16.724Z,95.80
2022-09-17T02:59:53.039Z,95.90
2022-09-17T03:02:23.273Z,96.10
2022-09-17T03:04:51.320Z,96.20
2022-09-17T03:07:21.924Z,96.30
2022-09-17T03:09:49.454Z,96.20
2022-09-17T03:12:17.290Z,96.30
2022-09-17T03:14:44.730Z,96.30
2022-09-17T03:17:12.941Z,96.40
2022-09-17T03:19:40.300Z,96.60
2022-09-17T03:22:07.644Z,96.60
2022-09-17T03:24:35.242Z,96.60
2022-09-17T03:27:02.804Z,96.60
2022-09-17T03:29:30.227Z,96.80
2022-09-17T03:31:57.767Z,96.80
2022-09-17T03:34:25.215Z,96.90
2022-09-17T03:36:52.841Z,96.90
2022-09-17T03:39:20.464Z,97.00
2022-09-17T03:41:48.090Z,97.10
2022-09-17T03:44:15.590Z,97.10
2022-09-17T03:46:43.137Z,97.10
2022-09-17T03:49:10.713Z,97.20
2022-09-17T03:51:38.211Z,97.20
2022-09-17T03:54:06.153Z,97.40
2022-09-17T03:56:33.743Z,97.30
2022-09-17T03:59:01.910Z,97.30
2022-09-17T04:01:29.793Z,97.40
2022-09-17T04:03:57.579Z,97.50
2022-09-17T04:06:25.084Z,97.60
2022-09-17T04:08:53.443Z,97.60
2022-09-17T04:11:20.938Z,97.70
2022-09-17T04:13:48.709Z,97.70
2022-09-17T04:16:16.370Z,97.70
2022-09-17T04:18:43.918Z,97.80
2022-09-17T04:21:11.448Z,97.90
2022-09-17T04:23:39.013Z,98.00
2022-09-17T04:26:06.488Z,98.00
2022-09-17T04:28:34.029Z,98.20
2022-09-17T04:31:01.557Z,98.20
2022-09-17T04:33:29.130Z,98.50
2022-09-17T04:35:56.598Z,98.40
2022-09-17T04:38:24.560Z,98.50
2022-09-17T04:40:52.187Z,98.50
2022-09-17T04:43:19.690Z,98.80
2022-09-17T04:45:48.917Z,98.80
2022-09-17T04:48:16.778Z,98.70
2022-09-17T04:50:44.488Z,98.80
2022-09-17T04:53:12.549Z,98.90
2022-09-17T04:55:40.119Z,98.90
2022-09-17T04:58:07.610Z,99.00
2022-09-17T05:00:35.547Z,99.10
2022-09-17T05:03:03.484Z,99.20
2022-09-17T05:05:30.933Z,99.10
2022-09-17T05:07:58.355Z,99.30
2022-09-17T05:10:26.383Z,99.30
2022-09-17T05:12:56.122Z,99.30
2022-09-17T05:15:25.323Z,99.50
2022-09-17T05:17:52.817Z,99.70
2022-09-17T05:20:20.429Z,99.90
2022-09-17T05:22:51.319Z,99.80
2022-09-17T05:25:24.000Z,99.90
2022-09-17T05:27:53.468Z,99.90
2022-09-17T05:30:21.281Z,99.90
2022-09-17T05:32:49.315Z,99.90
2022-09-17T05:35:16.807Z,99.90
2022-09-17T05:37:44.254Z,99.90
2022-09-17T05:40:11.865Z,99.90
2022-09-17T05:42:39.483Z,99.90
2022-09-17T05:45:07.550Z,99.90
2022-09-17T05:47:35.392Z,99.90
2022-09-17T05:50:02.766Z,99.90
2022-09-17T05:52:30.383Z,99.90
2022-09-17T05:54:57.822Z,99.90
2022-09-17T05:57:28.465Z,99.90
2022-09-17T05:59:55.917Z,99.90
2022-09-17T06:02:23.989Z,99.90
2022-09-17T06:04:51.510Z,99.90
2022-09-17T06:07:18.948Z,99.90
2022-09-17T06:09:46.419Z,99.90
2022-09-17T06:12:13.874Z,99.90
2022-09-17T06:14:41.315Z,99.90
2022-09-17T06:17:08.784Z,99.90
2022-09-17T06:19:36.445Z,99.90
2022-09-17T06:22:05.790Z,99.90
2022-09-17T06:24:33.455Z,99.90
2022-09-17T06:27:00.935Z,99.90
2022-09-17T06:29:28.398Z,99.90
2022-09-17T06:31:56.167Z,99.90
2022-09-17T06:34:23.978Z,99.90
2022-09-17T06:36:51.417Z,99.90
2022-09-17T06:39:18.855Z,99.90
2022-09-17T06:41:46.464Z,99.90
2022-09-17T06:44:16.507Z,99.90
2022-09-17T06:46:44.309Z,99.90
2022-09-17T06:49:11.805Z,99.90
2022-09-17T06:51:39.403Z,99.90
2022-09-17T06:54:06.853Z,99.90
2022-09-17T06:56:34.414Z,99.90
2022-09-17T06:59:02.152Z,99.90
2022-09-17T07:01:30.058Z,99.90
2022-09-17T07:03:57.934Z,99.90
2022-09-17T07:06:25.572Z,99.90
2022-09-17T07:08:53.054Z,99.90
2022-09-17T07:11:20.680Z,99.90
2022-09-17T07:13:48.131Z,99.90
2022-09-17T07:16:15.627Z,99.90
2022-09-17T07:18:43.284Z,99.90
2022-09-17T07:21:13.963Z,99.90
2022-09-17T07:23:41.684Z,99.90
2022-09-17T07:26:14.178Z,99.90
2022-09-17T07:28:43.646Z,99.90
2022-09-17T07:31:16.443Z,99.90
2022-09-17T07:33:45.247Z,99.90
2022-09-17T07:36:15.043Z,99.90
2022-09-17T07:38:42.556Z,99.90
2022-09-17T07:41:15.764Z,99.90
2022-09-17T07:43:45.765Z,99.90
2022-09-17T07:46:19.076Z,99.90
2022-09-17T07:48:49.282Z,99.90
2022-09-17T07:51:24.883Z,99.50
2022-09-17T07:53:57.902Z,99.30
2022-09-17T07:56:27.111Z,99.20
2022-09-17T07:58:55.320Z,99.10
2022-09-17T08:01:23.355Z,98.80
2022-09-17T08:03:51.923Z,98.70
2022-09-17T08:06:31.034Z,98.60
2022-09-17T08:09:00.038Z,98.50
2022-09-17T08:11:54.595Z,98.40
2022-09-17T08:14:17.333Z,98.30
2022-09-17T08:16:47.031Z,98.10
2022-09-17T08:19:14.459Z,98.00
2022-09-17T08:21:41.956Z,97.90
2022-09-17T08:24:09.715Z,97.80
2022-09-17T08:26:37.352Z,97.90
2022-09-17T08:29:05.475Z,97.80
2022-09-17T08:31:33.517Z,97.60
2022-09-17T08:34:01.396Z,97.50
2022-09-17T08:36:28.946Z,97.40
2022-09-17T08:38:56.780Z,97.40
2022-09-17T08:41:39.946Z,96.60
2022-09-17T08:44:22.448Z,96.50
2022-09-17T08:46:53.601Z,95.60
2022-09-17T08:49:47.280Z,95.00
2022-09-17T08:52:37.384Z,94.70
2022-09-17T08:55:18.568Z,94.40
2022-09-17T08:57:55.285Z,94.10
2022-09-17T09:00:24.549Z,93.70
2022-09-17T09:03:13.714Z,92.80
2022-09-17T09:05:47.498Z,91.70
2022-09-17T09:08:39.101Z,91.90
2022-09-17T09:11:19.918Z,91.40
2022-09-17T09:13:53.181Z,91.20
2022-09-17T09:16:27.101Z,91.60
2022-09-17T09:18:56.478Z,91.30
2022-09-17T09:21:30.166Z,91.00
2022-09-17T09:24:22.459Z,90.80
2022-09-17T09:27:14.335Z,89.30
2022-09-17T09:30:09.939Z,88.80
2022-09-17T09:32:59.018Z,88.50
2022-09-17T09:35:29.010Z,88.70
2022-09-17T09:38:12.807Z,88.60
2022-09-17T09:40:54.914Z,89.10
2022-09-17T09:43:36.475Z,89.00
2022-09-17T09:46:21.792Z,88.90
2022-09-17T09:48:58.614Z,88.30
2022-09-17T09:51:47.862Z,89.40
2022-09-17T09:54:44.164Z,87.90
2022-09-17T09:57:18.035Z,88.90
2022-09-17T09:59:45.489Z,88.50
2022-09-17T10:02:13.231Z,88.60
2022-09-17T10:04:40.973Z,88.60
2022-09-17T10:07:11.323Z,89.50
2022-09-17T10:09:44.939Z,89.40
2022-09-17T10:12:12.551Z,88.40
2022-09-17T10:14:42.009Z,87.80
2022-09-17T10:17:26.161Z,87.50
2022-09-17T10:19:59.816Z,87.10
2022-09-17T10:22:35.597Z,87.50
2022-09-17T10:25:05.750Z,86.40
2022-09-17T10:27:36.789Z,84.50
2022-09-17T10:30:25.992Z,86.20
2022-09-17T10:33:23.237Z,86.00
2022-09-17T10:35:58.375Z,84.80
2022-09-17T10:38:36.843Z,83.70
2022-09-17T10:41:22.049Z,84.00
2022-09-17T10:43:50.535Z,84.00
2022-09-17T10:46:30.319Z,84.20
2022-09-17T10:49:11.392Z,84.40
2022-09-17T10:51:39.325Z,83.30
2022-09-17T10:54:19.414Z,82.50
2022-09-17T10:56:57.296Z,82.80
2022-09-17T10:59:43.006Z,84.20
2022-09-17T11:02:22.715Z,84.20
2022-09-17T11:04:59.640Z,83.70
2022-09-17T11:07:48.150Z,83.10
2022-09-17T11:10:25.194Z,82.70
2022-09-17T11:13:24.715Z,82.80
2022-09-17T11:16:01.117Z,82.20
2022-09-17T11:18:46.891Z,82.40
2022-09-17T11:21:21.481Z,82.40
2022-09-17T11:24:13.494Z,82.70
2022-09-17T11:27:01.908Z,82.20
2022-09-17T11:29:50.807Z,82.30
2022-09-17T11:32:58.405Z,82.20
2022-09-17T11:35:39.408Z,80.70
2022-09-17T11:38:16.154Z,80.90
2022-09-17T11:40:48.394Z,81.00
2022-09-17T11:43:32.646Z,81.20
2022-09-17T11:46:05.467Z,80.80
2022-09-17T11:48:44.599Z,80.50
2022-09-17T11:51:32.821Z,81.00
2022-09-17T11:54:16.859Z,80.30
2022-09-17T11:56:47.673Z,80.00
2022-09-17T11:59:35.367Z,80.50
2022-09-17T12:02:09.643Z,80.00
2022-09-17T12:04:56.125Z,80.20
2022-09-17T12:07:51.130Z,80.40
2022-09-17T12:10:43.928Z,79.60
2022-09-17T12:13:21.340Z,79.80
2022-09-17T12:16:11.785Z,80.80
2022-09-17T12:18:51.523Z,79.10
2022-09-17T12:21:29.279Z,80.20
2022-09-17T12:24:18.553Z,79.10
2022-09-17T12:27:08.571Z,79.20
2022-09-17T12:30:13.646Z,79.20
2022-09-17T12:32:50.206Z,79.20
2022-09-17T12:36:03.152Z,78.90
2022-09-17T12:38:57.407Z,78.90
2022-09-17T12:41:31.631Z,78.40
2022-09-17T12:44:23.537Z,77.30
2022-09-17T12:47:18.888Z,78.00
2022-09-17T12:49:49.399Z,77.70
2022-09-17T12:52:54.062Z,77.90
2022-09-17T12:55:44.810Z,77.30
2022-09-17T12:58:45.405Z,77.60
2022-09-17T13:01:35.356Z,76.80
2022-09-17T13:05:00.951Z,77.70
2022-09-17T13:07:59.509Z,76.50
2022-09-17T13:10:27.133Z,76.00
2022-09-17T13:13:06.572Z,76.70
2022-09-17T13:16:00.817Z,76.60
2022-09-17T13:18:59.294Z,77.00
2022-09-17T13:21:41.948Z,76.20
2022-09-17T13:24:31.361Z,75.90
2022-09-17T13:27:09.378Z,76.00
2022-09-17T13:29:46.538Z,75.10
2022-09-17T13:32:33.012Z,75.50
2022-09-17T13:35:09.581Z,74.70
2022-09-17T13:37:45.616Z,73.40
2022-09-17T13:40:26.577Z,73.60
2022-09-17T13:43:06.260Z,74.10
2022-09-17T13:45:54.519Z,74.10
2022-09-17T13:48:26.835Z,75.20
2022-09-17T13:50:54.459Z,75.00
2022-09-17T13:53:27.125Z,77.00
2022-09-17T13:55:58.508Z,73.50
2022-09-17T13:58:29.559Z,74.00
2022-09-17T14:01:04.459Z,75.20
2022-09-17T14:03:34.111Z,72.70
2022-09-17T14:06:08.417Z,72.50
2022-09-17T14:08:45.653Z,71.40
2022-09-17T14:11:22.888Z,68.80
2022-09-17T14:14:11.000Z,70.40
2022-09-17T14:16:46.377Z,70.50
2022-09-17T14:19:22.715Z,68.00
2022-09-17T14:22:01.965Z,67.20
2022-09-17T14:24:49.241Z,66.90
2022-09-17T14:27:42.706Z,67.10
2022-09-17T14:30:26.186Z,75.00
2022-09-17T14:33:14.502Z,66.00
2022-09-17T14:35:46.971Z,65.60
2022-09-17T14:38:23.749Z,65.40
2022-09-17T14:41:03.807Z,71.00
2022-09-17T14:48:33.535Z,65.80
2022-09-17T14:51:19.733Z,67.30
2022-09-17T14:54:09.545Z,67.20
2022-09-17T14:56:48.992Z,67.40
2022-09-17T14:59:44.370Z,67.70
2022-09-17T15:02:34.064Z,67.90
2022-09-17T15:10:13.440Z,67.80
2022-09-17T15:12:45.311Z,68.80
2022-09-17T15:15:23.686Z,68.70
2022-09-17T15:17:52.451Z,68.70
2022-09-17T15:20:22.514Z,69.10
2022-09-17T15:23:12.825Z,69.10
2022-09-17T15:25:42.969Z,68.30
2022-09-17T15:28:35.403Z,68.30
2022-09-17T15:31:13.831Z,68.70
2022-09-17T15:33:42.804Z,68.70
2022-09-17T15:36:25.028Z,68.80
2022-09-17T15:38:52.618Z,68.60
2022-09-17T15:41:36.204Z,69.20
2022-09-17T15:44:36.320Z,68.10
2022-09-17T15:47:38.931Z,67.30
2022-09-17T15:50:34.144Z,67.60
2022-09-17T15:53:10.678Z,68.10
2022-09-17T15:55:41.011Z,68.70
2022-09-17T15:58:28.389Z,68.50
2022-09-17T16:01:14.278Z,68.80
2022-09-17T16:03:42.035Z,68.40
2022-09-17T16:06:18.931Z,68.40
2022-09-17T16:08:47.555Z,68.20
2022-09-17T16:11:16.094Z,68.50
2022-09-17T16:13:46.076Z,69.10
2022-09-17T16:16:37.680Z,68.40
2022-09-17T16:19:06.542Z,68.70
2022-09-17T16:21:35.400Z,69.50
2022-09-17T16:24:03.251Z,71.10
2022-09-17T16:26:37.445Z,70.70
2022-09-17T16:29:14.083Z,69.20
2022-09-17T16:31:41.884Z,69.00
2022-09-17T16:34:09.429Z,69.10
2022-09-17T16:36:36.975Z,69.40
2022-09-17T16:39:13.408Z,69.40
2022-09-17T16:41:41.167Z,69.80
2022-09-17T16:44:09.295Z,71.00
2022-09-17T16:46:36.913Z,69.50
2022-09-17T16:49:04.356Z,71.70
2022-09-17T16:51:35.273Z,70.50
2022-09-17T16:54:03.332Z,70.30
2022-09-17T16:56:30.874Z,70.60
2022-09-17T16:58:58.537Z,70.60
2022-09-17T17:01:26.374Z,70.60
2022-09-17T17:03:54.704Z,70.70
2022-09-17T17:06:22.650Z,70.70
2022-09-17T17:08:50.198Z,70.60
2022-09-17T17:11:17.759Z,70.70
2022-09-17T17:13:45.737Z,71.40
2022-09-17T17:16:15.244Z,71.80
2022-09-17T17:18:44.026Z,71.90
2022-09-17T17:21:13.884Z,71.90
2022-09-17T17:23:43.740Z,72.30
2022-09-17T17:26:11.210Z,72.80
2022-09-17T17:28:38.797Z,73.50
2022-09-17T17:31:10.084Z,73.30
2022-09-17T17:33:37.710Z,73.40
2022-09-17T17:36:08.308Z,73.90
2022-09-17T17:38:37.046Z,74.10
2022-09-17T17:41:13.042Z,74.40
2022-09-17T17:43:41.401Z,74.90
2022-09-17T17:46:10.504Z,75.20
2022-09-17T17:48:38.505Z,75.50
2022-09-17T17:51:08.399Z,75.80
2022-09-17T17:53:36.534Z,75.70
2022-09-17T17:56:06.832Z,75.90
2022-09-17T17:58:35.323Z,75.90
2022-09-17T18:01:13.525Z,76.40
2022-09-17T18:03:41.565Z,76.90
2022-09-17T18:06:09.270Z,77.00
2022-09-17T18:08:41.275Z,77.10
2022-09-17T18:11:10.333Z,77.40
2022-09-17T18:13:39.374Z,77.70
2022-09-17T18:16:09.187Z,77.80
2022-09-17T18:18:44.204Z,78.20
2022-09-17T18:21:17.212Z,78.40
2022-09-17T18:23:45.429Z,79.40
2022-09-17T18:26:14.417Z,79.90
2022-09-17T18:28:42.168Z,81.30
2022-09-17T18:31:23.336Z,80.90
2022-09-17T18:34:01.307Z,81.60
2022-09-17T18:36:32.150Z,82.20
2022-09-17T18:41:52.828Z,83.30
2022-09-17T18:44:21.830Z,84.00
2022-09-17T18:46:51.175Z,84.50
2022-09-17T18:49:18.864Z,85.00
2022-09-17T18:51:46.551Z,85.40
2022-09-17T18:54:14.100Z,86.00
2022-09-17T18:56:42.057Z,86.60
2022-09-17T18:59:10.759Z,87.30
2022-09-17T19:01:39.133Z,87.70
2022-09-17T19:04:09.987Z,88.20
2022-09-17T19:06:37.509Z,89.40
2022-09-17T19:09:06.205Z,89.30
2022-09-17T19:11:36.752Z,89.70
2022-09-17T19:14:04.263Z,90.10
2022-09-17T19:16:31.724Z,90.30
2022-09-17T19:18:59.205Z,90.50
2022-09-17T19:21:26.713Z,90.70
2022-09-17T19:23:54.338Z,90.90
2022-09-17T19:26:24.982Z,91.00
2022-09-17T19:28:53.995Z,91.20
2022-09-17T19:31:21.817Z,91.40
2022-09-17T19:33:50.450Z,91.50
2022-09-17T19:36:19.249Z,91.60
2022-09-17T19:38:47.844Z,91.80
2022-09-17T19:41:18.302Z,91.90
2022-09-17T19:43:46.575Z,92.10
2022-09-17T19:46:17.068Z,92.20
2022-09-17T19:48:46.198Z,92.30
2022-09-17T19:51:14.397Z,92.50
2022-09-17T19:53:41.888Z,92.60
2022-09-17T19:56:24.072Z,92.80
2022-09-17T19:58:52.371Z,92.70
2022-09-17T20:01:20.771Z,92.70
2022-09-17T20:03:48.622Z,92.80
2022-09-17T20:06:18.338Z,92.90
2022-09-17T20:08:49.999Z,93.00
2022-09-17T20:11:19.472Z,93.10
2022-09-17T20:13:46.963Z,93.20
2022-09-17T20:16:20.086Z,93.30
2022-09-17T20:18:48.827Z,93.40
2022-09-17T20:21:19.050Z,93.50
2022-09-17T20:23:46.880Z,94.10
2022-09-17T20:26:14.901Z,93.70
2022-09-17T20:28:42.856Z,93.70
2022-09-17T20:31:16.050Z,93.80
2022-09-17T20:33:44.166Z,93.90
2022-09-17T20:36:16.959Z,93.90
2022-09-17T20:39:10.450Z,94.00
2022-09-17T20:41:32.665Z,94.40
2022-09-17T20:44:00.365Z,94.40
2022-09-17T20:46:29.623Z,94.50
2022-09-17T20:48:58.203Z,94.50
2022-09-17T20:51:28.595Z,94.60
2022-09-17T20:53:57.358Z,94.60
2022-09-17T20:56:31.343Z,94.80
2022-09-17T20:59:11.132Z,94.80
2022-09-17T21:01:39.312Z,94.90
2022-09-17T21:04:08.002Z,95.00
2022-09-17T21:06:41.099Z,95.20
2022-09-17T21:09:15.786Z,95.10
2022-09-17T21:11:47.749Z,95.20
2022-09-17T21:14:15.821Z,95.20
2022-09-17T21:16:43.752Z,95.30
2022-09-17T21:19:13.133Z,95.50
2022-09-17T21:21:40.534Z,95.50
2022-09-17T21:24:10.213Z,95.80
2022-09-17T21:26:37.784Z,95.60
2022-09-17T21:29:05.468Z,95.70
2022-09-17T21:31:34.545Z,95.80
2022-09-17T21:34:05.592Z,95.90
2022-09-17T21:36:35.219Z,96.00
2022-09-17T21:39:05.636Z,96.10
2022-09-17T21:41:33.249Z,96.20
2022-09-17T21:44:00.764Z,96.30
2022-09-17T21:46:32.229Z,96.30
2022-09-17T21:49:02.231Z,96.50
2022-09-17T21:51:32.028Z,96.50
2022-09-17T21:54:01.810Z,96.60
2022-09-17T21:56:30.584Z,96.70
2022-09-17T21:59:00.475Z,97.40
2022-09-17T22:01:39.613Z,97.20
2022-09-17T22:04:13.021Z,97.00
2022-09-17T22:06:42.242Z,97.10
2022-09-17T22:09:15.164Z,97.20
2022-09-17T22:11:42.660Z,97.30
2022-09-17T22:14:19.664Z,97.70
2022-09-17T22:16:53.078Z,97.50
2022-09-17T22:19:22.180Z,97.50
2022-09-17T22:21:51.783Z,97.60
2022-09-17T22:24:20.728Z,97.70
2022-09-17T22:26:55.704Z,97.80
2022-09-17T22:29:25.700Z,97.80
2022-09-17T22:31:53.163Z,97.90
2022-09-17T22:34:22.445Z,98.20
2022-09-17T22:36:50.215Z,98.10
2022-09-17T22:39:20.173Z,99.30
2022-09-17T22:41:48.014Z,98.00
2022-09-17T22:44:17.844Z,98.10
2022-09-17T22:46:47.671Z,98.10
2022-09-17T22:49:15.628Z,98.10
2022-09-17T22:51:44.594Z,98.20
2022-09-17T22:54:14.350Z,98.20
2022-09-17T22:56:42.674Z,98.20
2022-09-17T22:59:10.341Z,98.50
2022-09-17T23:01:39.664Z,98.30
2022-09-17T23:04:08.013Z,98.20
2022-09-17T23:06:38.160Z,98.30
2022-09-17T23:09:06.250Z,98.10
2022-09-17T23:11:36.360Z,98.10
2022-09-17T23:14:07.466Z,98.00
2022-09-17T23:16:40.994Z,98.00
2022-09-17T23:19:08.443Z,98.00
2022-09-17T23:21:36.855Z,98.20
2022-09-17T23:24:04.531Z,98.00
2022-09-17T23:26:32.127Z,98.00
2022-09-17T23:29:04.955Z,98.10
2022-09-17T23:31:36.865Z,98.10
2022-09-17T23:34:05.698Z,98.20
2022-09-17T23:36:35.831Z,98.10
2022-09-17T23:39:04.471Z,98.10
2022-09-17T23:41:43.348Z,98.20
2022-09-17T23:44:15.236Z,98.20
2022-09-17T23:46:44.297Z,98.20
2022-09-17T23:49:12.883Z,98.10
2022-09-17T23:51:40.761Z,98.00
2022-09-17T23:54:08.303Z,98.00
2022-09-17T23:56:36.115Z,98.00
2022-09-17T23:59:04.700Z,98.40
